(KWJF) General Wm J Fox Airfield

METAR

VFR

KWJF 240456Z AUTO 25013G26KT 10SM CLR 30/07 A2994 RMK AO2 PK WND 27026/0454 SLP109 T03000067

Time

Wind

250° at 13 - 26 kts

Visibility

10 sm

Clouds (AGL)

Clear Below 12,000'

Temperature

Dewpoint

Altimeter

29.94 inHg

Relative Humidity

Density Altitude

ATIS

126.3

Fox Ground

121.7

Fox Tower

118.525 (1500-0500)

Unicom

122.95

Joshua Approach

126.1

Airport Address

  • Fox Airfield
  • 4555 W. Avenue G
  • Lancaster, CA 93536-8401

Foxy's Landing Restaurant

  • (661) 949-2284

More Info